createdAt,value
2018-05-01T00:00:33.370Z,982.17
2018-05-01T00:01:33.292Z,982.12
2018-05-01T00:02:33.217Z,982.09
2018-05-01T00:03:33.139Z,982.07
2018-05-01T00:04:33.062Z,982.02
2018-05-01T00:05:32.987Z,982.13
2018-05-01T00:06:32.910Z,982.12
2018-05-01T00:07:32.839Z,982.06
2018-05-01T00:08:32.759Z,982.03
2018-05-01T00:09:32.682Z,982.13
2018-05-01T00:10:32.605Z,982.17
2018-05-01T00:11:32.528Z,982.15
2018-05-01T00:12:32.452Z,982.16
2018-05-01T00:13:32.376Z,982.17
2018-05-01T00:14:32.299Z,982.20
2018-05-01T00:15:32.222Z,982.25
2018-05-01T00:16:32.146Z,982.19
2018-05-01T00:17:32.075Z,982.16
2018-05-01T00:18:31.993Z,982.21
2018-05-01T00:19:31.916Z,982.24
2018-05-01T00:20:31.841Z,982.24
2018-05-01T00:21:31.762Z,982.20
2018-05-01T00:22:31.687Z,982.23
2018-05-01T00:23:31.610Z,982.24
2018-05-01T00:24:31.536Z,982.21
2018-05-01T00:25:31.458Z,982.19
2018-05-01T00:26:31.382Z,982.21
2018-05-01T00:27:31.305Z,982.16
2018-05-01T00:28:31.237Z,982.25
2018-05-01T00:29:31.152Z,982.20
2018-05-01T00:30:31.081Z,982.24
2018-05-01T00:31:31.003Z,982.18
2018-05-01T00:32:30.923Z,982.16
2018-05-01T00:33:30.848Z,982.14
2018-05-01T00:34:30.771Z,982.19
2018-05-01T00:35:30.694Z,982.19
2018-05-01T00:36:30.618Z,982.14
2018-05-01T00:37:30.544Z,982.12
2018-05-01T00:38:30.614Z,982.23
2018-05-01T00:39:30.388Z,982.08
2018-05-01T00:40:30.316Z,982.14
2018-05-01T00:41:30.235Z,982.17
2018-05-01T00:42:30.158Z,982.15
2018-05-01T00:43:30.082Z,982.14
2018-05-01T00:44:30.005Z,982.18
2018-05-01T00:45:29.927Z,982.15
2018-05-01T00:46:29.852Z,982.31
2018-05-01T00:47:29.776Z,982.23
2018-05-01T00:48:29.700Z,982.26
2018-05-01T00:49:29.620Z,982.23
2018-05-01T00:50:29.545Z,982.24
2018-05-01T00:51:29.472Z,982.27
2018-05-01T00:52:29.390Z,982.31
2018-05-01T00:53:29.314Z,982.27
2018-05-01T00:54:29.237Z,982.29
2018-05-01T00:55:29.160Z,982.34
2018-05-01T00:56:29.084Z,982.27
2018-05-01T00:57:29.007Z,982.28
2018-05-01T00:58:28.936Z,982.34
2018-05-01T00:59:28.856Z,982.33
2018-05-01T01:00:28.776Z,982.38
2018-05-01T01:01:28.698Z,982.43
2018-05-01T01:02:28.622Z,982.38
2018-05-01T01:03:28.546Z,982.44
2018-05-01T01:04:28.469Z,982.44
2018-05-01T01:05:28.391Z,982.44
2018-05-01T01:06:28.312Z,982.43
2018-05-01T01:07:28.236Z,982.43
2018-05-01T01:08:28.160Z,982.44
2018-05-01T01:09:28.082Z,982.47
2018-05-01T01:10:28.005Z,982.47
2018-05-01T01:11:27.928Z,982.53
2018-05-01T01:12:27.854Z,982.42
2018-05-01T01:13:27.773Z,982.46
2018-05-01T01:14:27.695Z,982.39
2018-05-01T01:15:27.618Z,982.39
2018-05-01T01:16:27.542Z,982.48
2018-05-01T01:17:27.465Z,982.43
2018-05-01T01:18:27.385Z,982.43
2018-05-01T01:19:27.312Z,982.47
2018-05-01T01:20:27.232Z,982.44
2018-05-01T01:21:27.158Z,982.56
2018-05-01T01:22:27.077Z,982.60
2018-05-01T01:23:26.999Z,982.56
2018-05-01T01:24:26.921Z,982.59
2018-05-01T01:25:26.844Z,982.59
2018-05-01T01:26:26.765Z,982.59
2018-05-01T01:27:26.689Z,982.61
2018-05-01T01:28:26.611Z,982.70
2018-05-01T01:29:26.534Z,982.68
2018-05-01T01:30:26.456Z,982.71
2018-05-01T01:31:26.378Z,982.75
2018-05-01T01:32:35.276Z,982.86
2018-05-01T01:33:26.221Z,982.81
2018-05-01T01:34:26.144Z,982.72
2018-05-01T01:35:26.066Z,982.81
2018-05-01T01:36:25.989Z,982.80
2018-05-01T01:37:25.909Z,982.81
2018-05-01T01:38:25.833Z,982.83
2018-05-01T01:39:25.757Z,982.81
2018-05-01T01:40:25.677Z,982.80
2018-05-01T01:41:25.599Z,982.81
2018-05-01T01:42:25.521Z,982.84
2018-05-01T01:43:25.443Z,982.88
2018-05-01T01:44:25.365Z,982.90
2018-05-01T01:45:25.288Z,982.94
2018-05-01T01:46:25.208Z,982.94
2018-05-01T01:47:25.134Z,983.04
2018-05-01T01:48:25.056Z,983.06
2018-05-01T01:49:24.974Z,983.06
2018-05-01T01:50:24.896Z,983.02
2018-05-01T01:51:24.822Z,983.04
2018-05-01T01:52:24.740Z,983.09
2018-05-01T01:53:24.662Z,983.03
2018-05-01T01:54:24.584Z,983.04
2018-05-01T01:55:24.506Z,983.00
2018-05-01T01:56:24.428Z,983.10
2018-05-01T01:57:24.350Z,983.10
2018-05-01T01:58:24.271Z,983.13
2018-05-01T01:59:24.192Z,983.17
2018-05-01T02:00:24.115Z,983.21
2018-05-01T02:01:24.038Z,983.20
2018-05-01T02:02:23.958Z,983.19
2018-05-01T02:03:23.881Z,983.18
2018-05-01T02:04:23.800Z,983.22
2018-05-01T02:05:23.721Z,983.26
2018-05-01T02:06:23.644Z,983.27
2018-05-01T02:07:23.566Z,983.23
2018-05-01T02:08:23.490Z,983.25
2018-05-01T02:09:23.410Z,983.26
2018-05-01T02:10:23.330Z,983.24
2018-05-01T02:11:23.253Z,983.27
2018-05-01T02:12:23.174Z,983.33
2018-05-01T02:13:23.095Z,983.33
2018-05-01T02:14:23.017Z,983.31
2018-05-01T02:15:22.939Z,983.26
2018-05-01T02:16:22.860Z,983.33
2018-05-01T02:17:22.781Z,983.34
2018-05-01T02:18:22.704Z,983.34
2018-05-01T02:19:22.624Z,983.39
2018-05-01T02:20:22.548Z,983.39
2018-05-01T02:21:22.467Z,983.40
2018-05-01T02:22:22.392Z,983.39
2018-05-01T02:23:22.310Z,983.42
2018-05-01T02:24:22.232Z,983.39
2018-05-01T02:25:22.152Z,983.43
2018-05-01T02:26:22.074Z,983.47
2018-05-01T02:27:21.996Z,983.51
2018-05-01T02:28:21.918Z,983.51
2018-05-01T02:29:21.838Z,983.52
2018-05-01T02:30:21.760Z,983.51
2018-05-01T02:31:21.683Z,983.56
2018-05-01T02:32:21.604Z,983.56
2018-05-01T02:33:21.528Z,983.58
2018-05-01T02:34:21.446Z,983.59
2018-05-01T02:35:21.367Z,983.56
2018-05-01T02:36:21.293Z,983.59
2018-05-01T02:37:21.210Z,983.62
2018-05-01T02:38:21.131Z,983.58
2018-05-01T02:39:21.052Z,983.57
2018-05-01T02:40:20.974Z,983.62
2018-05-01T02:41:20.935Z,983.61
2018-05-01T02:42:20.817Z,983.68
2018-05-01T02:43:20.739Z,983.65
2018-05-01T02:44:20.660Z,983.68
2018-05-01T02:45:20.580Z,983.69
2018-05-01T02:46:20.501Z,983.66
2018-05-01T02:47:20.422Z,983.69
2018-05-01T02:48:20.344Z,983.70
2018-05-01T02:49:20.265Z,983.69
2018-05-01T02:50:20.194Z,983.68
2018-05-01T02:51:20.112Z,983.65
2018-05-01T02:52:20.029Z,983.68
2018-05-01T02:53:19.956Z,983.66
2018-05-01T02:54:19.871Z,983.66
2018-05-01T02:55:19.792Z,983.62
2018-05-01T02:56:19.713Z,983.61
2018-05-01T02:57:19.634Z,983.65
2018-05-01T02:58:19.558Z,983.64
2018-05-01T02:59:19.476Z,983.71
2018-05-01T03:00:19.397Z,983.75
2018-05-01T03:01:19.318Z,983.72
2018-05-01T03:02:19.247Z,983.76
2018-05-01T03:03:19.159Z,983.74
2018-05-01T03:04:19.087Z,983.77
2018-05-01T03:05:19.001Z,983.77
2018-05-01T03:06:18.922Z,983.73
2018-05-01T03:07:18.844Z,983.77
2018-05-01T03:08:18.765Z,983.77
2018-05-01T03:09:18.685Z,983.78
2018-05-01T03:10:18.606Z,983.74
2018-05-01T03:11:18.527Z,983.75
2018-05-01T03:12:18.447Z,983.67
2018-05-01T03:13:18.370Z,983.73
2018-05-01T03:14:18.288Z,983.76
2018-05-01T03:15:18.210Z,983.79
2018-05-01T03:16:18.131Z,983.76
2018-05-01T03:17:18.051Z,983.79
2018-05-01T03:18:17.975Z,983.80
2018-05-01T03:19:17.893Z,983.79
2018-05-01T03:20:17.814Z,983.87
2018-05-01T03:21:17.735Z,983.88
2018-05-01T03:22:17.653Z,983.80
2018-05-01T03:23:17.576Z,983.93
2018-05-01T03:24:17.494Z,983.95
2018-05-01T03:25:17.420Z,983.90
2018-05-01T03:26:17.336Z,983.89
2018-05-01T03:27:17.256Z,983.98
2018-05-01T03:28:17.185Z,983.88
2018-05-01T03:29:17.102Z,983.89
2018-05-01T03:30:17.018Z,983.90
2018-05-01T03:31:16.939Z,983.96
2018-05-01T03:32:16.859Z,983.94
2018-05-01T03:33:16.781Z,983.91
2018-05-01T03:34:16.699Z,983.95
2018-05-01T03:35:16.620Z,983.96
2018-05-01T03:36:16.543Z,983.99
2018-05-01T03:37:16.459Z,984.03
2018-05-01T03:38:16.382Z,983.86
2018-05-01T03:39:16.361Z,983.92
2018-05-01T03:40:16.222Z,983.97
2018-05-01T03:41:16.141Z,983.92
2018-05-01T03:42:16.063Z,983.99
2018-05-01T03:43:15.984Z,984.04
2018-05-01T03:44:15.904Z,984.05
2018-05-01T03:45:15.823Z,984.09
2018-05-01T03:46:15.743Z,984.12
2018-05-01T03:47:15.667Z,984.06
2018-05-01T03:48:15.585Z,984.15
2018-05-01T03:49:15.505Z,984.15
2018-05-01T03:50:15.425Z,984.17
2018-05-01T03:51:15.345Z,984.11
2018-05-01T03:52:15.267Z,984.15
2018-05-01T03:53:15.186Z,984.21
2018-05-01T03:54:15.107Z,984.15
2018-05-01T03:55:15.030Z,984.23
2018-05-01T03:56:14.973Z,984.23
2018-05-01T03:57:14.868Z,984.27
2018-05-01T03:58:14.791Z,984.31
2018-05-01T03:59:14.708Z,984.33
2018-05-01T04:00:14.630Z,984.32
2018-05-01T04:01:14.550Z,984.37
2018-05-01T04:02:14.474Z,984.35
2018-05-01T04:03:14.391Z,984.30
2018-05-01T04:04:14.312Z,984.38
2018-05-01T04:05:14.232Z,984.39
2018-05-01T04:06:14.155Z,984.44
2018-05-01T04:07:14.075Z,984.44
2018-05-01T04:08:13.995Z,984.38
2018-05-01T04:09:13.914Z,984.44
2018-05-01T04:10:13.835Z,984.44
2018-05-01T04:11:13.756Z,984.36
2018-05-01T04:12:13.677Z,984.54
2018-05-01T04:13:13.598Z,984.47
2018-05-01T04:14:13.517Z,984.51
2018-05-01T04:15:13.438Z,984.48
2018-05-01T04:16:13.361Z,984.48
2018-05-01T04:17:13.280Z,984.54
2018-05-01T04:18:13.207Z,984.51
2018-05-01T04:19:13.121Z,984.55
2018-05-01T04:20:13.042Z,984.55
2018-05-01T04:21:12.962Z,984.59
2018-05-01T04:22:12.883Z,984.59
2018-05-01T04:23:12.803Z,984.61
2018-05-01T04:24:12.724Z,984.64
2018-05-01T04:25:12.644Z,984.63
2018-05-01T04:26:12.564Z,984.65
2018-05-01T04:27:12.487Z,984.67
2018-05-01T04:28:12.407Z,984.69
2018-05-01T04:29:12.327Z,984.67
2018-05-01T04:30:12.251Z,984.67
2018-05-01T04:31:12.170Z,984.64
2018-05-01T04:32:12.090Z,984.71
2018-05-01T04:33:12.012Z,984.70
2018-05-01T04:34:11.932Z,984.66
2018-05-01T04:35:11.852Z,984.71
2018-05-01T04:36:11.775Z,984.66
2018-05-01T04:37:11.694Z,984.66
2018-05-01T04:38:11.616Z,984.62
2018-05-01T04:39:11.537Z,984.72
2018-05-01T04:40:11.459Z,984.63
2018-05-01T04:41:11.378Z,984.63
2018-05-01T04:42:11.301Z,984.66
2018-05-01T04:43:11.223Z,984.69
2018-05-01T04:44:11.141Z,984.73
2018-05-01T04:45:11.061Z,984.66
2018-05-01T04:46:10.987Z,984.65
2018-05-01T04:47:10.904Z,984.68
2018-05-01T04:48:10.825Z,984.64
2018-05-01T04:49:10.745Z,984.66
2018-05-01T04:50:10.667Z,984.69
2018-05-01T04:51:10.588Z,984.67
2018-05-01T04:52:10.509Z,984.66
2018-05-01T04:53:10.429Z,984.65
2018-05-01T04:54:10.349Z,984.69
2018-05-01T04:55:10.273Z,984.72
2018-05-01T04:56:10.192Z,984.71
2018-05-01T04:57:10.112Z,984.77
2018-05-01T04:58:10.034Z,984.81
2018-05-01T04:59:09.955Z,984.81
2018-05-01T05:00:09.877Z,984.81
2018-05-01T05:01:09.796Z,984.84
2018-05-01T05:02:09.718Z,984.86
2018-05-01T05:03:09.639Z,984.92
2018-05-01T05:04:09.559Z,984.96
2018-05-01T05:05:09.480Z,985.00
2018-05-01T05:06:09.403Z,984.98
2018-05-01T05:07:09.322Z,984.95
2018-05-01T05:08:09.244Z,985.00
2018-05-01T05:09:09.164Z,985.04
2018-05-01T05:10:09.084Z,985.05
2018-05-01T05:11:09.007Z,985.07
2018-05-01T05:12:08.928Z,985.07
2018-05-01T05:13:08.850Z,985.05
2018-05-01T05:14:08.769Z,985.07
2018-05-01T05:15:08.689Z,985.11
2018-05-01T05:16:08.610Z,985.14
2018-05-01T05:17:08.532Z,985.14
2018-05-01T05:18:08.453Z,985.11
2018-05-01T05:19:08.378Z,985.18
2018-05-01T05:20:08.295Z,985.20
2018-05-01T05:21:08.215Z,985.22
2018-05-01T05:22:08.136Z,985.23
2018-05-01T05:23:08.059Z,985.22
2018-05-01T05:24:07.980Z,985.30
2018-05-01T05:25:07.900Z,985.27
2018-05-01T05:26:07.823Z,985.30
2018-05-01T05:27:07.743Z,985.28
2018-05-01T05:28:07.665Z,985.24
2018-05-01T05:29:07.594Z,985.29
2018-05-01T05:30:07.508Z,985.29
2018-05-01T05:31:07.428Z,985.34
2018-05-01T05:32:07.350Z,985.31
2018-05-01T05:33:07.271Z,985.30
2018-05-01T05:34:07.192Z,985.30
2018-05-01T05:35:07.114Z,985.29
2018-05-01T05:36:07.036Z,985.30
2018-05-01T05:37:06.958Z,985.31
2018-05-01T05:38:06.879Z,985.30
2018-05-01T05:39:06.799Z,985.35
2018-05-01T05:40:06.721Z,985.37
2018-05-01T05:41:06.942Z,985.36
2018-05-01T05:42:06.563Z,985.36
2018-05-01T05:43:06.486Z,985.41
2018-05-01T05:44:06.408Z,985.45
2018-05-01T05:45:06.329Z,985.40
2018-05-01T05:46:06.250Z,985.45
2018-05-01T05:47:06.171Z,985.50
2018-05-01T05:48:06.098Z,985.51
2018-05-01T05:49:06.016Z,985.50
2018-05-01T05:50:05.937Z,985.56
2018-05-01T05:51:05.857Z,985.52
2018-05-01T05:52:05.781Z,985.62
2018-05-01T05:53:05.702Z,985.63
2018-05-01T05:54:05.624Z,985.64
2018-05-01T05:55:05.545Z,985.64
2018-05-01T05:56:05.467Z,985.63
2018-05-01T05:57:05.388Z,985.60
2018-05-01T05:58:05.310Z,985.60
2018-05-01T05:59:05.233Z,985.55
2018-05-01T06:00:05.156Z,985.55
2018-05-01T06:01:05.131Z,985.64
2018-05-01T06:02:04.997Z,985.59
2018-05-01T06:03:04.920Z,985.62
2018-05-01T06:04:04.842Z,985.64
2018-05-01T06:05:04.764Z,985.57
2018-05-01T06:06:04.684Z,985.63
2018-05-01T06:07:04.606Z,985.65
2018-05-01T06:08:04.528Z,985.63
2018-05-01T06:09:04.450Z,985.69
2018-05-01T06:10:04.371Z,985.67
2018-05-01T06:11:04.295Z,985.71
2018-05-01T06:12:04.214Z,985.75
2018-05-01T06:13:04.136Z,985.73
2018-05-01T06:14:04.057Z,985.74
2018-05-01T06:15:03.980Z,985.80
2018-05-01T06:16:03.903Z,985.79
2018-05-01T06:17:03.823Z,985.80
2018-05-01T06:18:03.745Z,985.88
2018-05-01T06:19:03.671Z,985.85
2018-05-01T06:20:03.596Z,985.90
2018-05-01T06:21:03.511Z,985.96
2018-05-01T06:22:03.582Z,985.95
2018-05-01T06:23:03.355Z,985.93
2018-05-01T06:24:03.277Z,985.89
2018-05-01T06:25:03.199Z,985.92
2018-05-01T06:26:03.122Z,985.90
2018-05-01T06:27:03.043Z,985.93
2018-05-01T06:28:02.966Z,985.92
2018-05-01T06:29:02.888Z,985.96
2018-05-01T06:30:02.810Z,985.98
2018-05-01T06:31:02.812Z,985.96
2018-05-01T06:32:02.655Z,985.98
2018-05-01T06:33:02.581Z,986.02
2018-05-01T06:34:02.505Z,986.00
2018-05-01T06:35:02.422Z,985.93
2018-05-01T06:36:02.344Z,985.96
2018-05-01T06:37:02.266Z,985.96
2018-05-01T06:38:02.188Z,985.99
2018-05-01T06:39:02.116Z,985.98
2018-05-01T06:40:02.034Z,985.97
2018-05-01T06:41:01.954Z,986.01
2018-05-01T06:42:01.876Z,986.02
2018-05-01T06:43:01.799Z,986.03
2018-05-01T06:44:01.828Z,986.01
2018-05-01T06:45:01.644Z,986.04
2018-05-01T06:46:01.566Z,986.02
2018-05-01T06:47:01.488Z,986.07
2018-05-01T06:48:01.415Z,986.02
2018-05-01T06:49:01.387Z,986.00
2018-05-01T06:50:01.256Z,986.07
2018-05-01T06:51:01.178Z,986.09
2018-05-01T06:52:01.104Z,986.10
2018-05-01T06:53:01.023Z,986.09
2018-05-01T06:54:00.945Z,986.08
2018-05-01T06:55:00.867Z,986.05
2018-05-01T06:56:00.824Z,986.09
2018-05-01T06:57:00.710Z,986.13
2018-05-01T06:58:00.634Z,986.13
2018-05-01T06:59:00.556Z,986.13
2018-05-01T07:00:00.479Z,986.15
2018-05-01T07:01:00.400Z,986.16
2018-05-01T07:02:00.327Z,986.20
2018-05-01T07:03:00.245Z,986.22
2018-05-01T07:04:00.168Z,986.20
2018-05-01T07:05:00.090Z,986.20
2018-05-01T07:06:00.013Z,986.19
2018-05-01T07:06:59.934Z,986.29
2018-05-01T07:07:59.864Z,986.29
2018-05-01T07:08:59.779Z,986.26
2018-05-01T07:09:59.704Z,986.27
2018-05-01T07:10:59.623Z,986.31
2018-05-01T07:11:59.546Z,986.34
2018-05-01T07:12:59.472Z,986.36
2018-05-01T07:13:59.389Z,986.40
2018-05-01T07:14:59.312Z,986.45
2018-05-01T07:15:59.238Z,986.45
2018-05-01T07:16:59.161Z,986.50
2018-05-01T07:17:59.079Z,986.51
2018-05-01T07:18:59.001Z,986.50
2018-05-01T07:19:58.924Z,986.51
2018-05-01T07:20:58.845Z,986.56
2018-05-01T07:21:58.767Z,986.54
2018-05-01T07:22:58.695Z,986.60
2018-05-01T07:23:58.641Z,986.66
2018-05-01T07:24:58.534Z,986.64
2018-05-01T07:25:58.460Z,986.68
2018-05-01T07:26:58.379Z,986.60
2018-05-01T07:27:58.301Z,986.61
2018-05-01T07:28:58.223Z,986.63
2018-05-01T07:29:58.145Z,986.62
2018-05-01T07:30:58.068Z,986.60
2018-05-01T07:31:57.990Z,986.58
2018-05-01T07:32:57.912Z,986.55
2018-05-01T07:33:57.833Z,986.61
2018-05-01T07:34:57.756Z,986.58
2018-05-01T07:35:57.678Z,986.59
2018-05-01T07:36:57.599Z,986.61
2018-05-01T07:37:57.521Z,986.66
2018-05-01T07:38:57.444Z,986.67
2018-05-01T07:39:57.366Z,986.66
2018-05-01T07:40:57.287Z,986.66
2018-05-01T07:41:57.209Z,986.66
2018-05-01T07:42:57.132Z,986.68
2018-05-01T07:43:57.055Z,986.67
2018-05-01T07:44:56.975Z,986.73
2018-05-01T07:45:56.897Z,986.75
2018-05-01T07:46:56.820Z,986.70
2018-05-01T07:47:56.742Z,986.78
2018-05-01T07:48:56.663Z,986.80
2018-05-01T07:49:56.587Z,986.79
2018-05-01T07:50:56.508Z,986.83
2018-05-01T07:51:56.456Z,986.77
2018-05-01T07:52:56.352Z,986.78
2018-05-01T07:53:56.277Z,986.77
2018-05-01T07:54:56.197Z,986.80
2018-05-01T07:55:56.120Z,986.82
2018-05-01T07:56:56.042Z,986.79
2018-05-01T07:57:55.964Z,986.82
2018-05-01T07:58:55.885Z,986.88
2018-05-01T07:59:55.809Z,986.87
2018-05-01T08:00:55.729Z,986.89
2018-05-01T08:01:55.652Z,986.92
2018-05-01T08:02:55.577Z,986.89
2018-05-01T08:03:55.565Z,986.90
2018-05-01T08:04:55.419Z,986.89
2018-05-01T08:05:55.341Z,986.93
2018-05-01T08:06:55.313Z,986.92
2018-05-01T08:07:55.185Z,986.91
2018-05-01T08:08:55.107Z,987.00
2018-05-01T08:09:55.030Z,986.91
2018-05-01T08:10:54.951Z,986.87
2018-05-01T08:11:54.874Z,986.88
2018-05-01T08:12:54.795Z,986.84
2018-05-01T08:13:54.717Z,986.87
2018-05-01T08:14:54.641Z,986.87
2018-05-01T08:15:54.562Z,986.87
2018-05-01T08:16:54.484Z,986.89
2018-05-01T08:17:54.412Z,986.93
2018-05-01T08:18:54.328Z,986.92
2018-05-01T08:19:54.252Z,986.93
2018-05-01T08:20:54.174Z,986.96
2018-05-01T08:21:54.094Z,986.94
2018-05-01T08:22:54.023Z,986.96
2018-05-01T08:23:53.939Z,986.95
2018-05-01T08:24:53.861Z,986.98
2018-05-01T08:25:53.784Z,987.00
2018-05-01T08:26:53.706Z,987.02
2018-05-01T08:27:53.629Z,987.07
2018-05-01T08:28:53.550Z,986.94
2018-05-01T08:29:53.473Z,986.95
2018-05-01T08:30:53.395Z,986.97
2018-05-01T08:31:53.318Z,986.98
2018-05-01T08:32:53.239Z,986.96
2018-05-01T08:33:53.163Z,986.95
2018-05-01T08:34:53.084Z,986.96
2018-05-01T08:35:53.009Z,986.98
2018-05-01T08:36:52.929Z,986.93
2018-05-01T08:37:52.852Z,987.00
2018-05-01T08:38:52.775Z,986.98
2018-05-01T08:39:52.699Z,987.05
2018-05-01T08:40:52.620Z,987.09
2018-05-01T08:41:52.543Z,987.03
2018-05-01T08:42:52.467Z,987.04
2018-05-01T08:43:52.390Z,987.10
2018-05-01T08:44:52.311Z,987.03
2018-05-01T08:45:52.235Z,987.03
2018-05-01T08:46:52.159Z,987.08
2018-05-01T08:47:52.083Z,987.03
2018-05-01T08:48:52.005Z,987.04
2018-05-01T08:49:51.928Z,987.10
2018-05-01T08:50:51.851Z,987.07
2018-05-01T08:51:51.775Z,987.05
2018-05-01T08:52:51.697Z,987.06
2018-05-01T08:53:51.620Z,987.08
2018-05-01T08:54:51.543Z,987.07
2018-05-01T08:55:51.467Z,987.09
2018-05-01T08:56:51.389Z,987.09
2018-05-01T08:57:51.312Z,987.21
2018-05-01T08:58:51.236Z,987.08
2018-05-01T08:59:51.161Z,987.11
2018-05-01T09:00:51.082Z,987.19
2018-05-01T09:01:51.006Z,987.13
2018-05-01T09:02:50.929Z,987.16
2018-05-01T09:03:50.854Z,987.17
2018-05-01T09:04:50.775Z,987.18
2018-05-01T09:05:50.699Z,987.22
2018-05-01T09:06:50.624Z,987.11
2018-05-01T09:07:50.548Z,987.08
2018-05-01T09:08:50.471Z,987.03
2018-05-01T09:09:50.396Z,987.04
2018-05-01T09:10:50.318Z,987.02
2018-05-01T09:11:50.242Z,987.07
2018-05-01T09:12:50.164Z,987.08
2018-05-01T09:13:50.093Z,987.16
2018-05-01T09:14:50.014Z,987.22
2018-05-01T09:15:49.935Z,987.27
2018-05-01T09:16:49.857Z,987.30
2018-05-01T09:17:49.994Z,987.30
2018-05-01T09:18:49.706Z,987.35
2018-05-01T09:19:49.630Z,987.27
2018-05-01T09:20:49.553Z,987.20
2018-05-01T09:21:49.476Z,987.26
2018-05-01T09:22:49.401Z,987.19
2018-05-01T09:23:49.326Z,987.30
2018-05-01T09:24:49.247Z,987.24
2018-05-01T09:25:49.174Z,987.28
2018-05-01T09:26:49.097Z,987.32
2018-05-01T09:27:49.022Z,987.27
2018-05-01T09:28:48.949Z,987.29
2018-05-01T09:29:48.870Z,987.25
2018-05-01T09:30:48.797Z,987.29
2018-05-01T09:31:48.721Z,987.32
2018-05-01T09:32:48.650Z,987.36
2018-05-01T09:33:48.568Z,987.41
2018-05-01T09:34:48.494Z,987.39
2018-05-01T09:35:48.417Z,987.46
2018-05-01T09:36:48.341Z,987.53
2018-05-01T09:37:48.266Z,987.48
2018-05-01T09:38:48.190Z,987.52
2018-05-01T09:39:48.114Z,987.60
2018-05-01T09:40:48.039Z,987.55
2018-05-01T09:41:48.009Z,987.58
2018-05-01T09:42:47.887Z,987.63
2018-05-01T09:43:47.811Z,987.62
2018-05-01T09:44:47.736Z,987.62
2018-05-01T09:45:47.659Z,987.62
2018-05-01T09:46:47.588Z,987.61
2018-05-01T09:47:47.508Z,987.64
2018-05-01T09:48:47.432Z,987.64
2018-05-01T09:49:47.357Z,987.67
2018-05-01T09:50:47.284Z,987.61
2018-05-01T09:51:47.206Z,987.65
2018-05-01T09:52:47.131Z,987.60
2018-05-01T09:53:47.055Z,987.68
2018-05-01T09:54:46.987Z,987.63
2018-05-01T09:55:46.903Z,987.64
2018-05-01T09:56:46.828Z,987.63
2018-05-01T09:57:46.752Z,987.61
2018-05-01T09:58:46.676Z,987.60
2018-05-01T09:59:46.601Z,987.65
2018-05-01T10:00:46.525Z,987.69
2018-05-01T10:01:46.458Z,987.70
2018-05-01T10:02:46.375Z,987.67
2018-05-01T10:03:46.299Z,987.67
2018-05-01T10:04:46.223Z,987.64
2018-05-01T10:05:46.148Z,987.67
2018-05-01T10:06:46.073Z,987.65
2018-05-01T10:07:46.000Z,987.61
2018-05-01T10:08:45.922Z,987.68
2018-05-01T10:09:45.846Z,987.69
2018-05-01T10:10:45.772Z,987.72
2018-05-01T10:11:45.696Z,987.70
2018-05-01T10:12:45.621Z,987.68
2018-05-01T10:13:45.546Z,987.76
2018-05-01T10:14:45.471Z,987.75
2018-05-01T10:15:45.396Z,987.64
2018-05-01T10:16:45.320Z,987.66
2018-05-01T10:17:45.245Z,987.65
2018-05-01T10:18:45.170Z,987.72
2018-05-01T10:19:45.097Z,987.68
2018-05-01T10:20:45.022Z,987.71
2018-05-01T10:21:44.948Z,987.76
2018-05-01T10:22:44.876Z,987.71
2018-05-01T10:23:44.797Z,987.71
2018-05-01T10:24:44.722Z,987.70
2018-05-01T10:25:44.646Z,987.68
2018-05-01T10:26:44.572Z,987.66
2018-05-01T10:27:44.497Z,987.65
2018-05-01T10:28:44.460Z,987.62
2018-05-01T10:29:44.348Z,987.66
2018-05-01T10:30:44.273Z,987.63
2018-05-01T10:31:44.199Z,987.65
2018-05-01T10:32:44.132Z,987.62
2018-05-01T10:33:44.047Z,987.67
2018-05-01T10:34:43.974Z,987.59
2018-05-01T10:35:43.905Z,987.63
2018-05-01T10:36:43.825Z,987.64
2018-05-01T10:37:43.750Z,987.57
2018-05-01T10:38:43.726Z,987.64
2018-05-01T10:39:43.601Z,987.58
2018-05-01T10:40:43.526Z,987.69
2018-05-01T10:41:43.452Z,987.66
2018-05-01T10:42:43.379Z,987.63
2018-05-01T10:43:43.304Z,987.72
2018-05-01T10:44:43.235Z,987.66
2018-05-01T10:45:43.177Z,987.65
2018-05-01T10:46:43.080Z,987.67
2018-05-01T10:47:43.006Z,987.71
2018-05-01T10:48:42.930Z,987.71
2018-05-01T10:49:42.856Z,987.70
2018-05-01T10:50:42.783Z,987.69
2018-05-01T10:51:42.706Z,987.64
2018-05-01T10:52:42.630Z,987.63
2018-05-01T10:53:42.557Z,987.66
2018-05-01T10:54:42.559Z,987.68
2018-05-01T10:55:42.410Z,987.67
2018-05-01T10:56:42.331Z,987.66
2018-05-01T10:57:42.258Z,987.66
2018-05-01T10:58:42.184Z,987.65
2018-05-01T10:59:42.109Z,987.60
2018-05-01T11:00:42.073Z,987.58
2018-05-01T11:01:41.960Z,987.66
2018-05-01T11:02:41.888Z,987.67
2018-05-01T11:03:41.813Z,987.65
2018-05-01T11:04:41.736Z,987.73
2018-05-01T11:05:41.662Z,987.74
2018-05-01T11:06:41.592Z,987.68
2018-05-01T11:07:41.515Z,987.68
2018-05-01T11:08:41.439Z,987.64
2018-05-01T11:09:41.368Z,987.62
2018-05-01T11:10:41.294Z,987.70
2018-05-01T11:11:41.220Z,987.71
2018-05-01T11:12:41.146Z,987.64
2018-05-01T11:13:41.071Z,987.72
2018-05-01T11:14:40.998Z,987.73
2018-05-01T11:15:40.927Z,987.67
2018-05-01T11:16:40.849Z,987.62
2018-05-01T11:17:40.776Z,987.65
2018-05-01T11:18:40.704Z,987.62
2018-05-01T11:19:40.633Z,987.65
2018-05-01T11:20:40.555Z,987.74
2018-05-01T11:21:40.487Z,987.63
2018-05-01T11:22:40.407Z,987.71
2018-05-01T11:23:40.334Z,987.68
2018-05-01T11:24:40.265Z,987.65
2018-05-01T11:25:40.188Z,987.67
2018-05-01T11:26:40.115Z,987.67
2018-05-01T11:27:40.043Z,987.80
2018-05-01T11:28:40.133Z,987.89
2018-05-01T11:29:39.896Z,987.94
2018-05-01T11:30:39.824Z,987.99
2018-05-01T11:31:39.751Z,988.03
2018-05-01T11:32:39.681Z,987.93
2018-05-01T11:33:39.641Z,987.98
2018-05-01T11:34:39.536Z,988.03
2018-05-01T11:35:39.466Z,988.08
2018-05-01T11:36:39.394Z,987.97
2018-05-01T11:37:39.326Z,987.91
2018-05-01T11:38:39.255Z,987.90
2018-05-01T11:39:39.184Z,987.83
2018-05-01T11:40:39.115Z,987.79
2018-05-01T11:41:39.045Z,987.89
2018-05-01T11:42:38.975Z,987.85
2018-05-01T11:43:38.907Z,987.80
2018-05-01T11:44:38.838Z,988.01
2018-05-01T11:45:38.767Z,987.98
2018-05-01T11:46:38.698Z,987.99
2018-05-01T11:47:38.630Z,987.74
2018-05-01T11:48:38.560Z,987.66
2018-05-01T11:49:38.493Z,987.93
2018-05-01T11:50:38.424Z,988.16
2018-05-01T11:51:38.356Z,988.27
2018-05-01T11:52:38.288Z,988.23
2018-05-01T11:53:38.254Z,988.18
2018-05-01T11:54:38.156Z,988.36
2018-05-01T11:55:38.090Z,987.80
2018-05-01T11:56:38.025Z,987.80
2018-05-01T11:57:37.958Z,987.98
2018-05-01T11:58:37.890Z,987.84
2018-05-01T11:59:37.826Z,987.79
2018-05-01T12:00:37.757Z,988.29
2018-05-01T12:01:37.694Z,988.43
2018-05-01T12:02:37.636Z,988.40
2018-05-01T12:03:37.564Z,988.55
2018-05-01T12:04:37.494Z,988.67
2018-05-01T12:05:37.428Z,988.57
2018-05-01T12:06:37.362Z,988.59
2018-05-01T12:07:37.297Z,988.64
2018-05-01T12:08:37.231Z,988.66
2018-05-01T12:09:37.165Z,988.80
2018-05-01T12:10:37.190Z,988.90
2018-05-01T12:11:37.035Z,988.93
2018-05-01T12:12:36.970Z,989.12
2018-05-01T12:13:36.905Z,989.23
2018-05-01T12:14:36.841Z,989.15
2018-05-01T12:15:36.783Z,989.22
2018-05-01T12:16:36.714Z,989.27
2018-05-01T12:17:36.650Z,989.39
2018-05-01T12:18:36.663Z,989.37
2018-05-01T12:19:36.525Z,989.32
2018-05-01T12:20:36.461Z,989.39
2018-05-01T12:21:36.397Z,989.40
2018-05-01T12:22:36.340Z,989.47
2018-05-01T12:23:36.282Z,989.42
2018-05-01T12:24:36.210Z,989.35
2018-05-01T12:25:36.150Z,989.38
2018-05-01T12:26:36.086Z,989.36
2018-05-01T12:27:36.028Z,989.39